Time;durP1;ratioP1;P1;durP2;ratioP2;P2;SDS_P1;SDS_P2;PMS_P1;PMS_P2;Temp;Humidity;BMP_temperature;BMP_pressure;BME280_temperature;BME280_humidity;BME280_pressure;Samples;Min_cycle;Max_cycle;Signal;HPM_P1;HPM_P2
2023/01/07 00:01:37;;;;;;;19.83;17.42;;;9.80;99.90;;;;;;5070693;28;20059;-67
2023/01/07 00:04:04;;;;;;;22.08;17.73;;;9.80;99.90;;;;;;5070030;28;20072;-67
2023/01/07 00:06:33;;;;;;;19.73;17.02;;;9.80;99.90;;;;;;5068881;28;20115;-67
2023/01/07 00:08:59;;;;;;;22.08;18.00;;;9.80;99.90;;;;;;5070385;28;20087;-67
2023/01/07 00:11:27;;;;;;;21.58;17.60;;;9.90;99.90;;;;;;5070976;28;20078;-67
2023/01/07 00:13:54;;;;;;;21.05;17.17;;;9.90;99.90;;;;;;5064095;28;20167;-66
2023/01/07 00:16:23;;;;;;;18.63;16.48;;;9.90;99.90;;;;;;5062194;28;20044;-67
2023/01/07 00:18:51;;;;;;;20.58;17.33;;;9.90;99.90;;;;;;5066541;28;20041;-67
2023/01/07 00:21:18;;;;;;;21.25;18.27;;;9.90;99.90;;;;;;5069070;28;20125;-67
2023/01/07 00:23:45;;;;;;;21.23;18.30;;;10.00;99.90;;;;;;5066409;28;20478;-67
2023/01/07 00:26:16;;;;;;;21.10;17.67;;;10.00;99.90;;;;;;5067403;28;20115;-67
2023/01/07 00:28:44;;;;;;;23.15;19.00;;;10.00;99.90;;;;;;5059656;28;20050;-67
2023/01/07 00:31:15;;;;;;;23.35;18.40;;;10.00;99.90;;;;;;5066650;28;20075;-67
2023/01/07 00:34:05;;;;;;;23.48;18.58;;;10.10;99.90;;;;;;5064489;28;20505;-67
2023/01/07 00:37:16;;;;;;;20.85;18.33;;;10.10;99.90;;;;;;5066851;28;20076;-67
2023/01/07 00:39:36;;;;;;;22.23;18.95;;;10.10;99.90;;;;;;5065567;28;20043;-68
2023/01/07 00:44:46;;;;;;;21.83;19.15;;;10.10;99.90;;;;;;5066204;28;20042;-67
2023/01/07 00:47:12;;;;;;;23.10;18.83;;;10.10;99.90;;;;;;5062875;28;20048;-67
2023/01/07 00:49:37;;;;;;;22.13;19.05;;;10.10;99.90;;;;;;5068896;28;20547;-67
2023/01/07 00:52:03;;;;;;;22.63;19.40;;;10.10;99.90;;;;;;5061315;28;20072;-66
2023/01/07 00:54:29;;;;;;;23.92;19.40;;;10.10;99.90;;;;;;5066023;28;20500;-67
2023/01/07 00:56:54;;;;;;;25.25;20.52;;;10.20;99.90;;;;;;5064990;28;20092;-67
2023/01/07 00:59:20;;;;;;;26.48;20.80;;;10.20;99.90;;;;;;5040913;28;20036;-67
2023/01/07 01:01:46;;;;;;;22.90;19.50;;;10.20;99.90;;;;;;5053394;28;20054;-67
2023/01/07 01:04:11;;;;;;;25.98;20.90;;;10.10;99.90;;;;;;5041471;28;20059;-67
2023/01/07 01:06:37;;;;;;;25.05;20.13;;;10.20;99.90;;;;;;5065137;28;20127;-67
2023/01/07 01:09:03;;;;;;;23.58;20.25;;;10.20;99.90;;;;;;5060284;28;20068;-67
2023/01/07 01:11:28;;;;;;;26.33;21.00;;;10.20;99.90;;;;;;5076174;28;20039;-67
2023/01/07 01:13:54;;;;;;;23.40;20.30;;;10.20;99.90;;;;;;5065713;28;20047;-67
2023/01/07 01:16:19;;;;;;;23.27;19.52;;;10.20;99.90;;;;;;5064995;28;20087;-67
2023/01/07 01:18:45;;;;;;;23.40;20.45;;;10.30;99.90;;;;;;5063492;28;20045;-67
2023/01/07 01:21:13;;;;;;;23.27;19.95;;;10.20;99.90;;;;;;5066274;28;20109;-67
2023/01/07 01:23:39;;;;;;;22.55;19.83;;;10.30;99.90;;;;;;5066467;28;20088;-67
2023/01/07 01:26:10;;;;;;;21.70;19.35;;;10.20;99.90;;;;;;5059396;28;20119;-67
2023/01/07 01:28:37;;;;;;;21.25;18.95;;;10.30;99.90;;;;;;5059366;28;20131;-67
2023/01/07 01:31:03;;;;;;;23.83;18.92;;;10.30;99.90;;;;;;5060924;28;20052;-67
2023/01/07 01:33:28;;;;;;;26.13;19.10;;;10.30;99.90;;;;;;5063608;28;20348;-67
2023/01/07 01:35:54;;;;;;;20.75;18.60;;;10.30;99.90;;;;;;5060323;28;20036;-67
2023/01/07 01:38:20;;;;;;;20.80;18.60;;;10.30;99.90;;;;;;5064437;28;20098;-67
2023/01/07 01:40:45;;;;;;;21.00;18.80;;;10.30;99.90;;;;;;5066253;28;20368;-67
2023/01/07 01:43:28;;;;;;;20.60;18.40;;;10.30;99.90;;;;;;5065814;28;20028;-67
2023/01/07 01:45:55;;;;;;;19.88;17.77;;;10.30;99.90;;;;;;5048897;28;20496;-67
2023/01/07 01:48:21;;;;;;;21.13;18.52;;;10.30;99.90;;;;;;5062843;28;20094;-66
2023/01/07 01:50:48;;;;;;;21.67;18.60;;;10.30;99.90;;;;;;5059643;28;20044;-67
2023/01/07 01:53:21;;;;;;;20.05;17.92;;;10.30;99.90;;;;;;5062065;28;20488;-67
2023/01/07 01:56:03;;;;;;;20.52;18.40;;;10.30;99.90;;;;;;5064563;28;20049;-68
2023/01/07 01:58:46;;;;;;;19.48;17.45;;;10.30;99.90;;;;;;5061579;28;20145;-67
2023/01/07 02:01:12;;;;;;;19.38;17.38;;;10.30;99.90;;;;;;5068489;28;20029;-66
2023/01/07 02:03:38;;;;;;;19.35;17.33;;;10.30;99.90;;;;;;5063697;28;20050;-67
2023/01/07 02:06:05;;;;;;;19.75;17.13;;;10.30;99.90;;;;;;5069004;28;20048;-67
2023/01/07 02:08:31;;;;;;;18.88;16.95;;;10.30;99.90;;;;;;5067667;28;20079;-67
2023/01/07 02:11:34;;;;;;;19.33;17.42;;;10.30;99.90;;;;;;5068908;28;20044;-67
2023/01/07 02:14:03;;;;;;;19.20;17.20;;;10.30;99.90;;;;;;5061360;28;20044;-67
2023/01/07 02:16:45;;;;;;;18.63;16.73;;;10.30;99.90;;;;;;5059414;28;20037;-67
2023/01/07 02:19:22;;;;;;;20.38;17.65;;;10.30;99.90;;;;;;5065235;28;20032;-67
2023/01/07 02:22:07;;;;;;;18.10;16.27;;;10.30;99.90;;;;;;5067960;28;20044;-67
2023/01/07 02:24:48;;;;;;;19.40;17.33;;;10.30;99.90;;;;;;5062738;28;20123;-67
2023/01/07 02:27:51;;;;;;;18.83;16.83;;;10.30;99.90;;;;;;5054325;28;20044;-67
2023/01/07 02:31:11;;;;;;;18.23;16.15;;;10.30;99.90;;;;;;5065506;28;20380;-67
2023/01/07 02:33:48;;;;;;;18.70;16.67;;;10.30;99.90;;;;;;5062307;28;20048;-67
2023/01/07 02:36:26;;;;;;;18.17;16.23;;;10.30;99.90;;;;;;5064381;28;20032;-67
2023/01/07 02:39:20;;;;;;;18.10;16.00;;;10.30;99.90;;;;;;5043783;28;20131;-67
2023/01/07 02:42:11;;;;;;;17.92;16.13;;;10.30;99.90;;;;;;5062585;28;20040;-66
2023/01/07 02:44:52;;;;;;;17.98;16.10;;;10.30;99.90;;;;;;5074901;28;20040;-68
2023/01/07 02:47:24;;;;;;;17.58;15.73;;;10.30;99.90;;;;;;5075074;28;20044;-67
2023/01/07 02:49:51;;;;;;;18.40;16.55;;;10.30;99.90;;;;;;5060683;28;20102;-67
2023/01/07 02:52:22;;;;;;;18.38;15.70;;;10.30;99.90;;;;;;5066201;28;20044;-66
2023/01/07 02:55:05;;;;;;;18.58;16.42;;;10.30;99.90;;;;;;5066643;28;20044;-67
2023/01/07 02:57:39;;;;;;;19.35;15.85;;;10.30;99.90;;;;;;5055434;28;20057;-67
2023/01/07 03:00:24;;;;;;;17.63;15.85;;;10.30;99.90;;;;;;5075615;28;20094;-68
2023/01/07 03:03:31;;;;;;;18.58;15.57;;;10.20;99.90;;;;;;5063281;28;20067;-66
2023/01/07 03:06:00;;;;;;;16.65;14.85;;;10.30;99.90;;;;;;5018943;28;20060;-67
2023/01/07 03:08:34;;;;;;;17.60;15.45;;;10.20;99.90;;;;;;5019084;28;20420;-67
2023/01/07 03:11:03;;;;;;;18.23;15.32;;;10.20;99.90;;;;;;5022265;28;20091;-67
2023/01/07 03:13:37;;;;;;;17.52;15.45;;;10.20;99.90;;;;;;5028661;28;20041;-67
2023/01/07 03:16:30;;;;;;;20.27;14.85;;;10.20;99.90;;;;;;5030417;28;20065;-67
2023/01/07 03:19:11;;;;;;;19.48;14.88;;;10.20;99.90;;;;;;5025343;28;20037;-67
2023/01/07 03:21:38;;;;;;;18.55;14.68;;;10.20;99.90;;;;;;5017899;28;20060;-68
2023/01/07 03:24:05;;;;;;;18.35;15.63;;;10.20;99.90;;;;;;5020445;28;20041;-67
2023/01/07 03:26:37;;;;;;;18.88;14.35;;;10.20;99.90;;;;;;5022498;28;20116;-68
2023/01/07 03:29:04;;;;;;;18.05;14.27;;;10.20;99.90;;;;;;5032381;28;20045;-68
2023/01/07 03:31:31;;;;;;;18.63;14.52;;;10.20;99.90;;;;;;5034496;28;20042;-67
2023/01/07 03:34:02;;;;;;;17.23;14.18;;;10.20;99.90;;;;;;5023332;28;20089;-67
2023/01/07 03:36:36;;;;;;;17.42;14.23;;;10.20;99.90;;;;;;5029914;28;20131;-67
2023/01/07 03:39:05;;;;;;;17.77;14.63;;;10.20;99.90;;;;;;5006390;28;20167;-67
2023/01/07 03:44:15;;;;;;;16.92;14.15;;;10.20;99.90;;;;;;5061587;28;20048;-67
2023/01/07 03:46:41;;;;;;;16.75;13.60;;;10.10;99.90;;;;;;5065882;28;20045;-67
2023/01/07 03:49:07;;;;;;;14.75;12.50;;;10.20;99.90;;;;;;5067068;28;20123;-67
2023/01/07 03:51:32;;;;;;;13.85;12.25;;;10.20;99.90;;;;;;5067618;28;20131;-67
2023/01/07 03:53:58;;;;;;;16.77;12.57;;;10.20;99.90;;;;;;5063344;28;20037;-67
2023/01/07 03:56:24;;;;;;;17.40;12.32;;;10.20;99.90;;;;;;5041886;28;20056;-66
2023/01/07 03:58:49;;;;;;;16.25;12.20;;;10.20;99.90;;;;;;5066638;28;20040;-67
2023/01/07 04:01:15;;;;;;;13.13;11.35;;;10.20;99.90;;;;;;5067775;28;20045;-67
2023/01/07 04:03:41;;;;;;;15.30;11.27;;;10.20;99.90;;;;;;5065946;28;20048;-67
2023/01/07 04:06:06;;;;;;;13.38;10.75;;;10.20;99.90;;;;;;5065800;28;20072;-67
2023/01/07 04:08:32;;;;;;;14.32;10.95;;;10.20;99.90;;;;;;5066076;28;20399;-67
2023/01/07 04:10:58;;;;;;;13.70;10.60;;;10.20;99.90;;;;;;5050639;28;21049;-67
2023/01/07 04:13:23;;;;;;;11.65;10.45;;;10.20;99.90;;;;;;5066669;28;20177;-67
2023/01/07 04:15:49;;;;;;;14.20;10.13;;;10.10;99.90;;;;;;5047111;28;20087;-66
2023/01/07 04:18:14;;;;;;;15.48;10.52;;;10.10;99.90;;;;;;5069487;28;20436;-66
2023/01/07 04:20:43;;;;;;;13.70;10.35;;;10.10;99.90;;;;;;5062688;28;20076;-67
2023/01/07 04:23:09;;;;;;;12.25;10.23;;;10.10;99.90;;;;;;5059247;28;20559;-67
2023/01/07 04:25:34;;;;;;;11.32;10.10;;;10.10;99.90;;;;;;5046261;28;20132;-67
2023/01/07 04:28:00;;;;;;;13.48;10.00;;;10.10;99.90;;;;;;5065054;28;20049;-67
2023/01/07 04:30:26;;;;;;;14.02;10.40;;;10.10;99.90;;;;;;5046423;28;20552;-68
2023/01/07 04:32:51;;;;;;;13.52;10.38;;;10.10;99.90;;;;;;5061942;28;20102;-67
2023/01/07 04:35:17;;;;;;;12.00;9.77;;;10.10;99.90;;;;;;5059503;28;20052;-67
2023/01/07 04:37:42;;;;;;;11.77;9.23;;;10.10;99.90;;;;;;5067182;28;20686;-67
2023/01/07 04:40:08;;;;;;;13.82;9.70;;;10.10;99.90;;;;;;5066504;28;20479;-66
2023/01/07 04:42:34;;;;;;;12.27;9.02;;;10.10;99.90;;;;;;5062387;28;20490;-67
2023/01/07 04:45:00;;;;;;;11.93;9.32;;;10.10;99.90;;;;;;5060761;28;20036;-67
2023/01/07 04:47:25;;;;;;;11.48;9.43;;;10.10;99.90;;;;;;5059429;28;20098;-67
2023/01/07 04:49:51;;;;;;;14.27;10.20;;;10.10;99.90;;;;;;5060356;28;20056;-67
2023/01/07 04:52:17;;;;;;;13.32;9.23;;;10.10;99.90;;;;;;5062808;28;20064;-67
2023/01/07 04:54:42;;;;;;;11.88;9.05;;;10.10;99.90;;;;;;5060861;28;20115;-67
2023/01/07 04:57:08;;;;;;;11.38;8.80;;;10.10;99.90;;;;;;5067655;28;20053;-67
2023/01/07 04:59:34;;;;;;;11.45;8.48;;;10.10;99.90;;;;;;5051204;28;20064;-67
2023/01/07 05:01:59;;;;;;;9.80;7.72;;;10.00;99.90;;;;;;5063959;28;20032;-66
2023/01/07 05:04:25;;;;;;;11.80;8.65;;;10.00;99.90;;;;;;5036800;28;20773;-66
2023/01/07 05:06:51;;;;;;;8.82;7.85;;;10.10;99.90;;;;;;5053671;28;20102;-67
2023/01/07 05:09:16;;;;;;;11.40;7.72;;;10.10;99.90;;;;;;5042056;28;20106;-67
2023/01/07 05:11:42;;;;;;;10.75;8.40;;;10.00;99.90;;;;;;5042114;28;20040;-67
2023/01/07 05:14:10;;;;;;;14.13;7.88;;;10.00;99.90;;;;;;5068342;28;20547;-67
2023/01/07 05:16:36;;;;;;;11.27;8.02;;;10.00;99.90;;;;;;5066009;28;20380;-67
2023/01/07 05:19:02;;;;;;;10.60;7.88;;;10.00;99.90;;;;;;5064159;28;20059;-67
2023/01/07 05:21:27;;;;;;;9.10;7.80;;;10.00;99.90;;;;;;5059780;28;20044;-67
2023/01/07 05:23:53;;;;;;;12.77;8.35;;;10.00;99.90;;;;;;5063116;28;20094;-67
2023/01/07 05:26:19;;;;;;;11.07;7.95;;;10.00;99.90;;;;;;5078793;28;20052;-66
2023/01/07 05:28:44;;;;;;;11.25;8.18;;;10.00;99.90;;;;;;5065919;28;20028;-67
2023/01/07 05:31:10;;;;;;;9.63;7.93;;;10.00;99.90;;;;;;5061459;28;20510;-68
2023/01/07 05:33:36;;;;;;;21.02;8.93;;;10.00;99.90;;;;;;5051026;28;20495;-67
2023/01/07 05:36:01;;;;;;;9.95;7.32;;;10.00;99.90;;;;;;5066919;28;20502;-66
2023/01/07 05:38:27;;;;;;;10.70;8.25;;;10.00;99.90;;;;;;5063428;28;20106;-67
2023/01/07 05:40:53;;;;;;;8.23;7.13;;;10.00;99.90;;;;;;5061697;28;20047;-66
2023/01/07 05:43:20;;;;;;;11.20;7.97;;;10.00;99.90;;;;;;5060235;28;20993;-67
2023/01/07 05:45:46;;;;;;;10.82;7.35;;;10.00;99.90;;;;;;5076779;28;20045;-66
2023/01/07 05:48:12;;;;;;;10.13;7.78;;;10.00;99.90;;;;;;5074826;28;20052;-67
2023/01/07 05:50:38;;;;;;;8.45;7.10;;;10.00;99.90;;;;;;5068201;28;20044;-67
2023/01/07 05:53:04;;;;;;;11.98;7.25;;;10.00;99.90;;;;;;5061056;28;20766;-67
2023/01/07 05:55:29;;;;;;;11.55;7.30;;;10.00;99.90;;;;;;5061044;28;20036;-67
2023/01/07 05:57:55;;;;;;;10.07;7.10;;;10.00;99.90;;;;;;5044135;28;20048;-66
2023/01/07 06:00:21;;;;;;;10.38;7.05;;;10.00;99.90;;;;;;5061486;28;20093;-67
2023/01/07 06:02:46;;;;;;;11.20;7.57;;;10.00;99.90;;;;;;5057668;28;20100;-67
2023/01/07 06:05:12;;;;;;;10.30;7.13;;;10.00;99.90;;;;;;5062726;28;20135;-66
2023/01/07 06:07:38;;;;;;;9.70;6.95;;;10.00;99.90;;;;;;5060939;28;20044;-67
2023/01/07 06:10:04;;;;;;;12.15;7.10;;;10.00;99.90;;;;;;5060037;28;20033;-67
2023/01/07 06:12:30;;;;;;;9.50;6.45;;;10.00;99.90;;;;;;5043901;28;20072;-67
2023/01/07 06:14:56;;;;;;;9.43;6.70;;;10.00;99.90;;;;;;5065186;28;20449;-67
2023/01/07 06:17:21;;;;;;;7.00;6.28;;;10.00;99.90;;;;;;5067990;28;20052;-67
2023/01/07 06:19:47;;;;;;;8.55;6.50;;;10.00;99.90;;;;;;5068812;28;20478;-66
2023/01/07 06:22:13;;;;;;;7.20;6.22;;;10.00;99.90;;;;;;5060281;28;20514;-67
2023/01/07 06:24:39;;;;;;;8.27;5.90;;;10.00;99.90;;;;;;5059645;28;20072;-67
2023/01/07 06:27:05;;;;;;;6.40;5.63;;;10.00;99.90;;;;;;5075417;28;20087;-67
2023/01/07 06:29:30;;;;;;;8.20;6.40;;;10.10;99.90;;;;;;5065433;28;20032;-67
2023/01/07 06:31:56;;;;;;;8.95;6.00;;;10.00;99.90;;;;;;5071694;28;20044;-67
2023/01/07 06:34:22;;;;;;;8.15;5.88;;;10.00;99.90;;;;;;5072996;28;20422;-67
2023/01/07 06:36:48;;;;;;;7.03;5.82;;;10.00;99.90;;;;;;5071498;28;20040;-67
2023/01/07 06:39:13;;;;;;;9.10;6.03;;;10.00;99.90;;;;;;5070934;28;20399;-67
2023/01/07 06:41:39;;;;;;;5.82;5.22;;;10.00;99.90;;;;;;5071605;28;20040;-67
2023/01/07 06:44:05;;;;;;;7.72;5.30;;;10.00;99.90;;;;;;5072259;28;20067;-67
2023/01/07 06:46:30;;;;;;;7.88;5.25;;;10.00;99.90;;;;;;5055573;28;20045;-67
2023/01/07 06:48:56;;;;;;;6.35;5.15;;;10.00;99.90;;;;;;5070543;28;20087;-67
2023/01/07 06:51:22;;;;;;;6.80;5.03;;;10.00;99.90;;;;;;5071182;28;20115;-67
2023/01/07 06:53:47;;;;;;;10.27;5.25;;;10.00;99.90;;;;;;5072301;28;20380;-66
2023/01/07 06:56:13;;;;;;;5.93;5.13;;;10.00;99.90;;;;;;5071999;28;20633;-66
2023/01/07 06:58:39;;;;;;;7.82;5.07;;;10.00;99.90;;;;;;5052951;28;20037;-66
2023/01/07 07:01:06;;;;;;;6.18;5.05;;;10.00;99.90;;;;;;5071707;28;20041;-67
2023/01/07 07:03:31;;;;;;;7.28;4.80;;;10.00;99.90;;;;;;5069824;28;20039;-67
2023/01/07 07:05:57;;;;;;;7.65;4.88;;;9.90;99.90;;;;;;5071787;28;20041;-67
2023/01/07 07:08:23;;;;;;;8.65;4.75;;;9.90;99.90;;;;;;5071519;28;20052;-67
2023/01/07 07:10:48;;;;;;;6.65;4.85;;;9.90;99.90;;;;;;5071459;28;20479;-68
2023/01/07 07:13:14;;;;;;;6.55;4.50;;;9.90;99.90;;;;;;5072009;28;20036;-67
2023/01/07 07:15:40;;;;;;;5.95;4.50;;;9.90;99.90;;;;;;5070838;28;20041;-68
2023/01/07 07:18:05;;;;;;;7.22;4.68;;;9.90;99.90;;;;;;5070383;28;20045;-66
2023/01/07 07:20:31;;;;;;;7.05;4.47;;;9.90;99.90;;;;;;5070283;28;20078;-67
2023/01/07 07:22:56;;;;;;;6.38;4.45;;;9.90;99.90;;;;;;5071705;28;20406;-66
2023/01/07 07:25:22;;;;;;;4.95;4.20;;;9.90;99.90;;;;;;5071585;28;20111;-66
2023/01/07 07:27:48;;;;;;;5.38;4.30;;;9.80;99.90;;;;;;5071562;28;20036;-67
2023/01/07 07:30:14;;;;;;;6.22;4.55;;;9.80;99.90;;;;;;5068847;28;20039;-66
2023/01/07 07:32:40;;;;;;;7.50;3.95;;;9.80;99.90;;;;;;5054668;28;20028;-67
2023/01/07 07:35:06;;;;;;;6.22;4.07;;;9.80;99.90;;;;;;5068751;28;20119;-66
2023/01/07 07:37:32;;;;;;;4.85;4.10;;;9.70;99.90;;;;;;5070809;28;20048;-66
2023/01/07 07:39:57;;;;;;;4.80;4.30;;;9.70;99.90;;;;;;5071148;28;20045;-67
2023/01/07 07:42:23;;;;;;;6.32;4.10;;;9.70;99.90;;;;;;5070170;28;20040;-67
2023/01/07 07:44:49;;;;;;;7.78;4.85;;;9.70;99.90;;;;;;5070806;28;20032;-66
2023/01/07 07:47:15;;;;;;;5.45;4.40;;;9.70;99.90;;;;;;5053579;28;20086;-66
2023/01/07 07:49:41;;;;;;;6.18;4.38;;;9.60;99.90;;;;;;5069944;28;20036;-66
2023/01/07 07:52:06;;;;;;;6.82;4.40;;;9.60;99.90;;;;;;5063470;28;20750;-66
2023/01/07 07:54:32;;;;;;;4.63;4.15;;;9.50;99.90;;;;;;5070296;28;20033;-66
2023/01/07 07:56:58;;;;;;;5.53;4.15;;;9.50;99.90;;;;;;5069678;28;20139;-66
2023/01/07 07:59:24;;;;;;;6.95;4.68;;;9.50;99.90;;;;;;5067477;28;20479;-67
2023/01/07 08:01:50;;;;;;;6.40;4.50;;;9.50;99.90;;;;;;5070681;28;20064;-67
2023/01/07 08:04:15;;;;;;;8.63;4.55;;;9.50;99.90;;;;;;5067619;28;20450;-66
2023/01/07 08:06:41;;;;;;;7.30;5.30;;;9.50;99.90;;;;;;5068876;28;20071;-66
2023/01/07 08:09:07;;;;;;;6.78;4.20;;;9.50;99.90;;;;;;5070026;28;20044;-66
2023/01/07 08:11:32;;;;;;;5.82;4.32;;;9.40;99.90;;;;;;5069612;28;20483;-66
2023/01/07 08:13:58;;;;;;;6.75;4.25;;;9.40;99.90;;;;;;5068798;28;20082;-66
2023/01/07 08:16:24;;;;;;;6.53;4.20;;;9.40;99.90;;;;;;5069582;28;20501;-66
2023/01/07 08:18:50;;;;;;;8.02;3.95;;;9.40;99.90;;;;;;5068497;28;20033;-67
2023/01/07 08:21:15;;;;;;;6.15;4.03;;;9.50;99.90;;;;;;5069716;28;20067;-67
2023/01/07 08:23:41;;;;;;;6.05;3.85;;;9.50;99.90;;;;;;5070671;28;20047;-67
2023/01/07 08:26:07;;;;;;;7.10;4.13;;;9.50;99.90;;;;;;5069987;28;20372;-67
2023/01/07 08:28:33;;;;;;;8.73;4.35;;;9.50;99.90;;;;;;5069289;28;20499;-67
2023/01/07 08:31:03;;;;;;;9.35;3.78;;;9.50;99.90;;;;;;5068804;28;20097;-67
2023/01/07 08:33:30;;;;;;;5.53;3.88;;;9.50;99.90;;;;;;5067659;28;20046;-67
2023/01/07 08:35:55;;;;;;;5.18;3.80;;;9.50;99.90;;;;;;5068658;28;20048;-67
2023/01/07 08:38:21;;;;;;;4.47;3.83;;;9.50;99.90;;;;;;5068546;28;20502;-67
2023/01/07 08:40:48;;;;;;;5.07;3.83;;;9.50;99.90;;;;;;5052277;28;20037;-67
2023/01/07 08:43:14;;;;;;;5.30;3.55;;;9.50;99.90;;;;;;5069542;28;20106;-67
2023/01/07 08:45:39;;;;;;;6.25;3.53;;;9.50;99.90;;;;;;5068935;28;20044;-67
2023/01/07 08:48:05;;;;;;;5.30;3.40;;;9.50;99.90;;;;;;5068703;28;20048;-67
2023/01/07 08:50:32;;;;;;;4.82;3.47;;;9.50;99.90;;;;;;5069140;28;20049;-67
2023/01/07 08:52:58;;;;;;;5.30;3.67;;;9.60;99.90;;;;;;5068644;28;20044;-66
2023/01/07 08:55:24;;;;;;;3.80;3.13;;;9.60;99.90;;;;;;5068908;28;20056;-67
2023/01/07 08:57:50;;;;;;;5.55;3.60;;;9.60;99.90;;;;;;5068978;28;20500;-67
2023/01/07 09:00:18;;;;;;;4.10;3.30;;;9.60;99.90;;;;;;5068206;28;20040;-67
2023/01/07 09:02:44;;;;;;;4.57;3.63;;;9.60;99.90;;;;;;5067835;28;20472;-67
2023/01/07 09:05:10;;;;;;;6.72;3.60;;;9.60;99.90;;;;;;5051662;28;20041;-68
2023/01/07 09:07:36;;;;;;;4.20;3.70;;;9.70;99.90;;;;;;5068759;28;20036;-66
2023/01/07 09:10:02;;;;;;;6.28;4.18;;;9.70;99.90;;;;;;5080471;28;20510;-66
2023/01/07 09:12:28;;;;;;;6.57;3.78;;;9.70;99.90;;;;;;5068727;28;20068;-66
2023/01/07 09:14:54;;;;;;;4.57;3.00;;;9.70;99.90;;;;;;5052951;28;20064;-66
2023/01/07 09:17:20;;;;;;;5.05;3.15;;;9.70;99.90;;;;;;5068163;28;20040;-67
2023/01/07 09:19:45;;;;;;;4.53;3.20;;;9.70;99.90;;;;;;5067408;28;20086;-67
2023/01/07 09:22:11;;;;;;;4.68;2.92;;;9.70;99.90;;;;;;5067969;28;20052;-67
2023/01/07 09:24:40;;;;;;;3.45;3.10;;;9.70;99.90;;;;;;5066709;28;20364;-66
2023/01/07 09:27:05;;;;;;;3.63;2.80;;;9.70;99.90;;;;;;5067926;28;20044;-66
2023/01/07 09:29:31;;;;;;;4.25;2.70;;;9.70;99.90;;;;;;5068132;28;20036;-67
2023/01/07 09:31:57;;;;;;;4.07;2.80;;;9.80;99.90;;;;;;5067555;28;21166;-67
2023/01/07 09:34:23;;;;;;;4.25;2.97;;;9.80;99.90;;;;;;5068770;28;20046;-67
2023/01/07 09:36:48;;;;;;;3.13;2.80;;;9.90;99.90;;;;;;5068683;28;20047;-66
2023/01/07 09:39:14;;;;;;;5.15;2.80;;;10.00;99.90;;;;;;5069516;28;20096;-67
2023/01/07 09:42:10;;;;;;;3.40;2.78;;;10.00;99.90;;;;;;5068926;28;20036;-67
2023/01/07 09:44:43;;;;;;;4.47;2.88;;;10.10;99.90;;;;;;5068716;28;20644;-66
2023/01/07 09:47:11;;;;;;;3.92;2.70;;;10.20;99.90;;;;;;5052453;28;20040;-66
2023/01/07 09:49:38;;;;;;;3.00;2.42;;;10.30;99.90;;;;;;5068780;28;20046;-67
2023/01/07 09:52:09;;;;;;;5.40;3.03;;;10.30;99.90;;;;;;5068329;28;20044;-67
2023/01/07 09:54:36;;;;;;;3.20;2.53;;;10.40;99.90;;;;;;5068823;28;20093;-67
2023/01/07 09:57:03;;;;;;;3.05;2.50;;;10.40;99.90;;;;;;5068625;28;20094;-67
2023/01/07 09:59:29;;;;;;;4.05;2.13;;;10.50;99.90;;;;;;5068743;28;20158;-66
2023/01/07 10:02:22;;;;;;;2.70;2.20;;;10.50;99.90;;;;;;5068216;28;20040;-66
2023/01/07 10:05:19;;;;;;;4.60;3.10;;;10.50;99.90;;;;;;5051416;28;20036;-67
2023/01/07 10:08:13;;;;;;;4.00;2.00;;;10.40;99.90;;;;;;5068944;28;20083;-66
2023/01/07 10:10:55;;;;;;;3.58;2.28;;;10.40;99.90;;;;;;5068883;28;20040;-66
2023/01/07 10:13:33;;;;;;;2.35;1.90;;;10.50;99.90;;;;;;5051710;28;20048;-67
2023/01/07 10:16:10;;;;;;;3.38;2.35;;;10.50;99.90;;;;;;5068159;28;20080;-67
2023/01/07 10:19:09;;;;;;;3.63;2.25;;;10.50;99.90;;;;;;5068696;28;20487;-68
2023/01/07 10:21:57;;;;;;;1.60;1.50;;;10.50;99.90;;;;;;5068593;28;20486;-67
2023/01/07 10:24:27;;;;;;;1.95;1.63;;;10.50;99.90;;;;;;5068275;28;20048;-66
2023/01/07 10:26:59;;;;;;;3.22;1.63;;;10.50;99.90;;;;;;5066067;28;20044;-66
2023/01/07 10:29:34;;;;;;;3.00;1.90;;;10.50;99.90;;;;;;5063641;28;20109;-67
2023/01/07 10:32:15;;;;;;;2.63;1.75;;;10.60;99.90;;;;;;5067703;28;20049;-66
2023/01/07 10:34:47;;;;;;;2.47;1.70;;;10.60;99.90;;;;;;5066181;28;20419;-66
2023/01/07 10:37:31;;;;;;;2.22;1.75;;;10.70;99.90;;;;;;5066590;28;20053;-66
2023/01/07 10:40:21;;;;;;;1.90;1.58;;;10.70;99.90;;;;;;5067370;28;20090;-67
2023/01/07 10:42:55;;;;;;;2.28;1.52;;;10.70;99.90;;;;;;5068635;28;20115;-67
2023/01/07 10:45:54;;;;;;;2.90;1.38;;;10.80;99.90;;;;;;5067919;28;20037;-66
2023/01/07 10:48:26;;;;;;;2.97;1.40;;;10.80;99.90;;;;;;5051315;28;20071;-66
2023/01/07 10:51:14;;;;;;;2.47;1.30;;;10.80;99.90;;;;;;5067415;28;20124;-68
2023/01/07 10:54:01;;;;;;;1.83;1.40;;;10.80;99.90;;;;;;5067956;28;20429;-66
2023/01/07 10:56:31;;;;;;;2.55;1.48;;;10.80;99.90;;;;;;5067733;28;20047;-66
2023/01/07 10:58:57;;;;;;;2.45;1.60;;;10.80;99.90;;;;;;5068080;28;20131;-66
2023/01/07 11:01:36;;;;;;;2.90;1.95;;;10.80;99.90;;;;;;5066467;28;20044;-67
2023/01/07 11:04:03;;;;;;;2.55;1.67;;;10.90;99.90;;;;;;5068203;28;20051;-67
2023/01/07 11:06:51;;;;;;;1.95;1.50;;;10.90;99.90;;;;;;5068089;28;20407;-66
2023/01/07 11:09:26;;;;;;;2.67;1.70;;;10.90;99.90;;;;;;5068535;28;20491;-66
2023/01/07 11:11:54;;;;;;;3.85;1.85;;;11.00;99.90;;;;;;5067600;28;20399;-66
2023/01/07 11:14:24;;;;;;;2.92;1.98;;;11.00;99.90;;;;;;5066625;28;20047;-66
2023/01/07 11:17:13;;;;;;;4.75;1.50;;;11.00;99.90;;;;;;5069612;28;20059;-67
2023/01/07 11:19:44;;;;;;;2.25;1.48;;;11.10;99.90;;;;;;5071419;28;20040;-67
2023/01/07 11:22:42;;;;;;;2.85;1.80;;;11.20;99.90;;;;;;5072985;28;20040;-67
2023/01/07 11:25:25;;;;;;;2.85;1.38;;;11.10;99.90;;;;;;5013832;28;20049;-66
2023/01/07 11:27:51;;;;;;;1.90;1.50;;;11.10;99.90;;;;;;4996133;28;20983;-67
2023/01/07 11:30:29;;;;;;;2.25;1.48;;;11.10;99.90;;;;;;5013763;28;20053;-66
2023/01/07 11:33:01;;;;;;;2.92;1.55;;;11.10;99.90;;;;;;5013636;28;20057;-67
2023/01/07 11:35:27;;;;;;;2.47;1.70;;;11.10;99.90;;;;;;5013258;28;20052;-66
2023/01/07 11:37:54;;;;;;;1.98;1.77;;;11.20;99.90;;;;;;5013659;28;20531;-66
2023/01/07 11:40:24;;;;;;;4.07;1.90;;;11.10;99.90;;;;;;5013818;28;20090;-67
2023/01/07 11:42:54;;;;;;;1.70;1.55;;;11.10;99.90;;;;;;5013515;28;20447;-67
2023/01/07 11:45:23;;;;;;;2.03;1.83;;;11.10;99.90;;;;;;5013344;28;20043;-67
2023/01/07 11:48:16;;;;;;;1.70;1.60;;;11.10;99.90;;;;;;4996973;28;20082;-67
2023/01/07 11:51:01;;;;;;;3.10;1.50;;;11.10;99.90;;;;;;5012752;28;20049;-66
2023/01/07 11:53:37;;;;;;;1.85;1.50;;;11.10;99.90;;;;;;5013163;28;20048;-66
2023/01/07 11:56:10;;;;;;;2.97;1.65;;;11.10;99.90;;;;;;5012685;28;20045;-66
2023/01/07 11:58:38;;;;;;;3.65;1.60;;;11.20;99.90;;;;;;5011112;28;20059;-66
2023/01/07 12:01:06;;;;;;;1.77;1.30;;;11.40;99.90;;;;;;5045374;28;20142;-67
2023/01/07 12:03:33;;;;;;;1.63;1.30;;;11.60;99.90;;;;;;5067052;28;20083;-66
2023/01/07 12:06:06;;;;;;;2.22;1.40;;;11.80;99.90;;;;;;5067765;28;20499;-66
2023/01/07 12:08:32;;;;;;;2.15;1.60;;;12.10;99.90;;;;;;5069589;28;20051;-67
2023/01/07 12:11:13;;;;;;;3.70;1.75;;;12.40;99.90;;;;;;5069792;28;20045;-67
2023/01/07 12:13:46;;;;;;;3.97;1.30;;;12.50;99.90;;;;;;5070797;28;20052;-67
2023/01/07 12:16:12;;;;;;;2.05;1.27;;;12.70;99.90;;;;;;5069315;28;20534;-67
2023/01/07 12:18:56;;;;;;;3.83;1.55;;;12.80;99.90;;;;;;5070415;28;20068;-66
2023/01/07 12:21:49;;;;;;;1.73;1.20;;;12.90;99.90;;;;;;5069446;28;20045;-67
2023/01/07 12:24:23;;;;;;;3.17;1.25;;;12.90;99.90;;;;;;5068970;28;20036;-67
2023/01/07 12:27:10;;;;;;;2.75;1.33;;;12.90;99.90;;;;;;5067144;28;20044;-66
2023/01/07 12:30:07;;;;;;;2.15;1.30;;;12.90;99.90;;;;;;5069416;28;20143;-66
2023/01/07 12:32:35;;;;;;;1.80;1.20;;;12.90;99.90;;;;;;5070274;28;20123;-67
2023/01/07 12:35:14;;;;;;;1.83;1.17;;;13.20;99.90;;;;;;5068858;28;20467;-66
2023/01/07 12:37:56;;;;;;;1.75;1.17;;;13.20;99.90;;;;;;5050279;28;20044;-66
2023/01/07 12:40:37;;;;;;;2.10;1.30;;;13.20;99.90;;;;;;5068686;28;20032;-67
2023/01/07 12:43:31;;;;;;;2.35;1.05;;;13.10;99.90;;;;;;5068637;28;20090;-66
2023/01/07 12:46:01;;;;;;;3.20;1.88;;;13.10;99.90;;;;;;5068891;28;20509;-66
2023/01/07 12:49:04;;;;;;;2.97;1.70;;;13.10;99.90;;;;;;5067213;28;20047;-66
2023/01/07 12:51:33;;;;;;;3.95;2.88;;;13.60;99.90;;;;;;5048982;28;20052;-67
2023/01/07 12:54:13;;;;;;;2.50;1.92;;;13.80;99.90;;;;;;5068815;28;20117;-66
2023/01/07 12:56:48;;;;;;;2.08;1.52;;;13.70;99.90;;;;;;5067251;28;20048;-67
2023/01/07 12:59:20;;;;;;;1.67;1.50;;;13.60;99.90;;;;;;5069351;28;20072;-67
2023/01/07 13:01:59;;;;;;;2.45;2.00;;;13.60;99.90;;;;;;5047773;28;20049;-67
2023/01/07 13:04:57;;;;;;;1.85;1.23;;;13.70;99.90;;;;;;5067136;28;20071;-67